createdAt,value
2019-06-10T00:01:08.509Z,2.30
2019-06-10T00:03:37.869Z,2.10
2019-06-10T00:06:07.474Z,1.80
2019-06-10T00:08:37.082Z,1.93
2019-06-10T00:11:07.818Z,1.40
2019-06-10T00:13:37.578Z,2.30
2019-06-10T00:16:08.050Z,2.10
2019-06-10T00:18:42.053Z,1.80
2019-06-10T00:21:11.218Z,1.90
2019-06-10T00:23:41.221Z,1.80
2019-06-10T00:26:12.508Z,1.83
2019-06-10T00:28:42.402Z,2.00
2019-06-10T00:31:12.015Z,2.17
2019-06-10T00:33:41.675Z,2.00
2019-06-10T00:36:13.633Z,1.90
2019-06-10T00:38:42.581Z,2.87
2019-06-10T00:41:14.148Z,1.77
2019-06-10T00:43:43.461Z,1.83
2019-06-10T00:46:13.414Z,1.97
2019-06-10T00:48:43.196Z,1.97
2019-06-10T00:51:13.269Z,2.20
2019-06-10T00:53:43.056Z,1.73
2019-06-10T00:56:14.335Z,1.60
2019-06-10T00:58:43.923Z,2.07
2019-06-10T01:01:14.732Z,2.37
2019-06-10T01:03:44.618Z,2.00
2019-06-10T01:06:15.066Z,1.60
2019-06-10T01:08:44.985Z,1.50
2019-06-10T01:11:21.298Z,1.77
2019-06-10T01:13:46.034Z,1.73
2019-06-10T01:16:15.794Z,1.50
2019-06-10T01:18:45.530Z,1.70
2019-06-10T01:21:15.547Z,2.07
2019-06-10T01:23:45.303Z,2.00
2019-06-10T01:26:16.446Z,1.70
2019-06-10T01:28:46.360Z,2.07
2019-06-10T01:31:20.870Z,2.33
2019-06-10T01:33:47.474Z,1.77
2019-06-10T01:36:18.244Z,1.60
2019-06-10T01:38:50.947Z,2.07
2019-06-10T01:41:21.320Z,2.00
2019-06-10T01:43:51.541Z,1.77
2019-06-10T01:46:21.638Z,2.17
2019-06-10T01:48:52.134Z,2.00
2019-06-10T01:51:22.162Z,2.00
2019-06-10T01:53:51.954Z,1.50
2019-06-10T01:56:22.009Z,2.07
2019-06-10T01:58:52.101Z,2.00
2019-06-10T02:01:34.066Z,1.93
2019-06-10T02:04:03.859Z,1.90
2019-06-10T02:06:33.794Z,2.03
2019-06-10T02:09:06.353Z,1.70
2019-06-10T02:11:37.348Z,1.60
2019-06-10T02:14:10.123Z,2.20
2019-06-10T02:16:41.446Z,1.70
2019-06-10T02:19:13.961Z,2.30
2019-06-10T02:21:43.294Z,2.00
2019-06-10T02:24:14.786Z,2.10
2019-06-10T02:26:45.161Z,1.93
2019-06-10T02:29:16.117Z,1.87
2019-06-10T02:31:46.629Z,1.83
2019-06-10T02:34:21.836Z,2.17
2019-06-10T02:36:47.964Z,1.70
2019-06-10T02:39:25.881Z,2.00
2019-06-10T02:41:53.552Z,2.20
2019-06-10T02:44:32.546Z,2.43
2019-06-10T02:46:55.579Z,2.57
2019-06-10T02:49:46.236Z,1.77
2019-06-10T02:51:57.189Z,1.87
2019-06-10T02:54:31.493Z,2.17
2019-06-10T02:56:58.977Z,1.60
2019-06-10T02:59:31.574Z,1.47
2019-06-10T03:02:03.056Z,1.73
2019-06-10T03:04:37.256Z,2.57
2019-06-10T03:07:04.817Z,2.13
2019-06-10T03:09:35.777Z,1.80
2019-06-10T03:12:05.697Z,2.00
2019-06-10T03:14:35.405Z,2.23
2019-06-10T03:17:08.786Z,1.70
2019-06-10T03:19:49.488Z,2.10
2019-06-10T03:22:09.829Z,2.07
2019-06-10T03:24:42.034Z,2.00
2019-06-10T03:27:12.644Z,1.97
2019-06-10T03:29:42.278Z,1.97
2019-06-10T03:32:16.574Z,2.20
2019-06-10T03:34:47.215Z,2.10
2019-06-10T03:37:16.093Z,1.97
2019-06-10T03:39:46.001Z,1.93
2019-06-10T03:42:16.761Z,2.10
2019-06-10T03:44:46.481Z,1.70
2019-06-10T03:47:17.083Z,2.10
2019-06-10T03:49:52.573Z,1.80
2019-06-10T03:52:19.321Z,1.87
2019-06-10T03:54:49.058Z,2.17
2019-06-10T03:57:19.223Z,1.80
2019-06-10T03:59:49.077Z,2.13
2019-06-10T04:02:19.414Z,2.13
2019-06-10T04:04:52.350Z,2.03
2019-06-10T04:07:26.455Z,2.13
2019-06-10T04:09:53.988Z,2.13
2019-06-10T04:12:24.662Z,2.50
2019-06-10T04:14:55.018Z,2.30
2019-06-10T04:17:25.696Z,1.90
2019-06-10T04:20:10.426Z,2.53
2019-06-10T04:22:28.403Z,2.17
2019-06-10T04:24:58.348Z,2.37
2019-06-10T04:27:28.413Z,2.07
2019-06-10T04:29:58.357Z,1.70
2019-06-10T04:32:29.128Z,2.00
2019-06-10T04:34:58.949Z,2.60
2019-06-10T04:37:29.532Z,1.67
2019-06-10T04:39:59.335Z,2.10
2019-06-10T04:42:29.055Z,2.20
2019-06-10T04:44:58.781Z,2.17
2019-06-10T04:47:29.632Z,1.87
2019-06-10T04:49:59.435Z,2.53
2019-06-10T04:52:29.810Z,1.80
2019-06-10T04:55:02.590Z,2.10
2019-06-10T04:57:32.788Z,1.63
2019-06-10T05:00:10.960Z,2.10
2019-06-10T05:02:34.998Z,1.93
2019-06-10T05:05:05.356Z,2.10
2019-06-10T05:07:37.039Z,2.20
2019-06-10T05:10:07.204Z,1.70
2019-06-10T05:12:37.072Z,1.70
2019-06-10T05:15:06.990Z,1.80
2019-06-10T05:17:36.664Z,1.70
2019-06-10T05:20:07.486Z,1.50
2019-06-10T05:22:37.218Z,2.37
2019-06-10T05:25:07.270Z,1.33
2019-06-10T05:27:36.980Z,1.90
2019-06-10T05:30:07.704Z,2.20
2019-06-10T05:32:37.378Z,1.80
2019-06-10T05:35:07.570Z,2.00
2019-06-10T05:37:37.221Z,1.60
2019-06-10T05:40:07.341Z,1.60
2019-06-10T05:42:37.429Z,1.80
2019-06-10T05:45:08.362Z,1.70
2019-06-10T05:47:38.109Z,1.50
2019-06-10T05:50:08.883Z,1.77
2019-06-10T05:52:38.689Z,1.23
2019-06-10T05:55:08.374Z,1.60
2019-06-10T05:57:38.094Z,1.47
2019-06-10T06:00:13.913Z,1.30
2019-06-10T06:02:43.113Z,2.00
2019-06-10T06:05:12.983Z,1.40
2019-06-10T06:07:42.718Z,1.43
2019-06-10T06:10:13.062Z,1.33
2019-06-10T06:12:42.916Z,1.20
2019-06-10T06:15:13.112Z,1.40
2019-06-10T06:17:43.329Z,1.40
2019-06-10T06:20:13.578Z,1.00
2019-06-10T06:22:43.235Z,1.20
2019-06-10T06:25:15.086Z,1.20
2019-06-10T06:27:44.667Z,1.20
2019-06-10T06:30:18.555Z,1.27
2019-06-10T06:32:46.402Z,1.73
2019-06-10T06:35:16.193Z,0.93
2019-06-10T06:37:46.101Z,0.90
2019-06-10T06:40:16.059Z,0.93
2019-06-10T06:42:45.746Z,1.10
2019-06-10T06:45:15.601Z,1.17
2019-06-10T06:47:45.309Z,0.97
2019-06-10T06:50:15.069Z,1.10
2019-06-10T06:53:15.535Z,1.00
2019-06-10T06:55:16.213Z,1.10
2019-06-10T06:57:45.903Z,0.80
2019-06-10T07:00:41.050Z,1.00
2019-06-10T07:02:47.920Z,1.00
2019-06-10T07:05:17.742Z,0.97
2019-06-10T07:07:48.785Z,0.80
2019-06-10T07:10:18.489Z,1.10
2019-06-10T07:12:52.201Z,1.07
2019-06-10T07:15:24.981Z,1.10
2019-06-10T07:17:54.710Z,1.00
2019-06-10T07:20:24.489Z,1.33
2019-06-10T07:22:54.266Z,0.80
2019-06-10T07:25:23.926Z,1.00
2019-06-10T07:27:53.762Z,0.77
2019-06-10T07:30:23.505Z,0.80
2019-06-10T07:32:53.209Z,1.23
2019-06-10T07:35:22.922Z,1.27
2019-06-10T07:37:52.680Z,1.07
2019-06-10T07:40:22.509Z,0.90
2019-06-10T07:42:53.938Z,0.97
2019-06-10T07:45:23.650Z,0.80
2019-06-10T07:47:53.366Z,1.10
2019-06-10T07:50:23.142Z,1.20
2019-06-10T07:52:53.023Z,0.90
2019-06-10T07:55:22.782Z,1.00
2019-06-10T07:57:53.047Z,1.30
2019-06-10T08:00:24.625Z,1.20
2019-06-10T08:02:54.527Z,0.90
2019-06-10T08:05:24.295Z,1.13
2019-06-10T08:07:54.771Z,0.93
2019-06-10T08:10:24.785Z,1.00
2019-06-10T08:12:54.519Z,1.23
2019-06-10T08:15:24.312Z,0.60
2019-06-10T08:17:54.845Z,1.37
2019-06-10T08:20:43.840Z,0.87
2019-06-10T08:23:13.787Z,0.83
2019-06-10T08:25:47.664Z,1.00
2019-06-10T08:28:15.130Z,1.10
2019-06-10T08:30:46.126Z,1.03
2019-06-10T08:33:16.369Z,1.00
2019-06-10T08:35:55.767Z,1.00
2019-06-10T08:38:17.460Z,0.70
2019-06-10T08:40:48.535Z,0.88
2019-06-10T08:43:18.474Z,0.82
2019-06-10T08:45:48.787Z,0.80
2019-06-10T08:48:18.622Z,1.07
2019-06-10T08:50:49.996Z,1.35
2019-06-10T08:53:19.671Z,0.82
2019-06-10T08:55:50.249Z,1.10
2019-06-10T08:58:23.103Z,1.10
2019-06-10T09:00:53.578Z,1.30
2019-06-10T09:03:23.504Z,1.02
2019-06-10T09:05:54.564Z,1.07
2019-06-10T09:08:25.705Z,1.32
2019-06-10T09:10:55.741Z,0.95
2019-06-10T09:13:25.608Z,1.07
2019-06-10T09:16:11.008Z,1.00
2019-06-10T09:18:26.782Z,0.93
2019-06-10T09:20:56.469Z,1.30
2019-06-10T09:23:26.241Z,0.70
2019-06-10T09:25:57.444Z,1.60
2019-06-10T09:28:27.372Z,1.40
2019-06-10T09:30:59.082Z,1.00
2019-06-10T09:33:28.411Z,1.10
2019-06-10T09:35:58.060Z,1.13
2019-06-10T09:38:27.858Z,0.90
2019-06-10T09:41:01.782Z,1.13
2019-06-10T09:43:29.110Z,1.33
2019-06-10T09:45:58.790Z,1.00
2019-06-10T09:48:28.547Z,1.07
2019-06-10T09:50:59.248Z,1.10
2019-06-10T09:53:35.034Z,0.90
2019-06-10T09:56:03.838Z,1.20
2019-06-10T09:58:32.981Z,0.90
2019-06-10T10:01:03.727Z,1.27
2019-06-10T10:03:33.488Z,1.17
2019-06-10T10:06:11.519Z,1.23
2019-06-10T10:08:34.966Z,0.80
2019-06-10T10:11:04.828Z,1.00
2019-06-10T10:13:35.420Z,1.10
2019-06-10T10:16:05.671Z,1.03
2019-06-10T10:18:35.486Z,1.13
2019-06-10T10:21:05.360Z,1.00
2019-06-10T10:23:50.337Z,1.20
2019-06-10T10:26:06.516Z,1.70
2019-06-10T10:28:36.173Z,1.77
2019-06-10T10:31:05.849Z,1.70
2019-06-10T10:33:35.640Z,1.10
2019-06-10T10:36:05.489Z,1.57
2019-06-10T10:38:35.268Z,1.43
2019-06-10T10:41:05.681Z,1.63
2019-06-10T10:43:37.599Z,1.30
2019-06-10T10:46:06.761Z,1.30
2019-06-10T10:48:36.437Z,1.60
2019-06-10T10:51:06.226Z,1.40
2019-06-10T10:53:35.965Z,1.30
2019-06-10T10:56:05.786Z,1.50
2019-06-10T10:58:35.703Z,1.63
2019-06-10T11:01:05.415Z,1.67
2019-06-10T11:03:35.111Z,1.50
2019-06-10T11:06:04.775Z,1.43
2019-06-10T11:08:34.470Z,1.70
2019-06-10T11:11:05.710Z,1.60
2019-06-10T11:13:37.283Z,1.30
2019-06-10T11:16:07.334Z,1.60
2019-06-10T11:18:37.153Z,1.30
2019-06-10T11:21:07.630Z,1.70
2019-06-10T11:23:37.437Z,1.77
2019-06-10T11:26:07.146Z,1.50
2019-06-10T11:28:36.848Z,1.77
2019-06-10T11:31:06.643Z,1.90
2019-06-10T11:33:36.549Z,2.03
2019-06-10T11:36:06.390Z,1.33
2019-06-10T11:38:36.122Z,1.53
2019-06-10T11:41:05.983Z,1.40
2019-06-10T11:43:35.786Z,1.77
2019-06-10T11:46:07.743Z,1.67
2019-06-10T11:48:36.882Z,1.57
2019-06-10T11:51:06.584Z,1.40
2019-06-10T11:53:36.292Z,1.70
2019-06-10T11:56:06.080Z,1.80
2019-06-10T11:58:35.988Z,1.63
2019-06-10T12:01:05.747Z,1.47
2019-06-10T12:03:35.522Z,1.27
2019-06-10T12:06:05.856Z,1.70
2019-06-10T12:08:35.674Z,1.83
2019-06-10T12:11:05.471Z,1.87
2019-06-10T12:13:35.182Z,1.67
2019-06-10T12:16:58.376Z,1.50
2019-06-10T12:18:36.323Z,1.60
2019-06-10T12:21:05.988Z,1.87
2019-06-10T12:23:35.677Z,1.40
2019-06-10T12:26:05.529Z,1.50
2019-06-10T12:28:35.633Z,1.70
2019-06-10T12:31:07.314Z,1.50
2019-06-10T12:33:36.709Z,1.40
2019-06-10T12:36:07.365Z,1.47
2019-06-10T12:38:37.414Z,0.90
2019-06-10T12:41:09.925Z,1.17
2019-06-10T12:43:38.681Z,1.23
2019-06-10T12:46:08.457Z,1.10
2019-06-10T12:48:38.262Z,0.80
2019-06-10T12:51:09.462Z,1.00
2019-06-10T12:53:39.596Z,0.80
2019-06-10T12:56:11.123Z,0.80
2019-06-10T12:58:42.912Z,0.97
2019-06-10T13:01:12.082Z,1.30
2019-06-10T13:03:43.726Z,1.00
2019-06-10T13:06:15.678Z,0.90
2019-06-10T13:08:46.198Z,0.80
2019-06-10T13:11:16.066Z,0.70
2019-06-10T13:13:45.781Z,0.97
2019-06-10T13:16:15.543Z,1.20
2019-06-10T13:18:45.438Z,0.90
2019-06-10T13:21:17.822Z,1.00
2019-06-10T13:23:46.665Z,1.07
2019-06-10T13:26:17.928Z,0.80
2019-06-10T13:28:47.778Z,1.30
2019-06-10T13:31:17.476Z,1.00
2019-06-10T13:33:46.473Z,1.30
2019-06-10T13:36:16.212Z,1.43
2019-06-10T13:38:45.946Z,1.00
2019-06-10T13:41:15.975Z,1.43
2019-06-10T13:43:45.961Z,1.50
2019-06-10T13:46:15.832Z,0.90
2019-06-10T13:48:45.502Z,1.10
2019-06-10T13:51:15.862Z,1.13
2019-06-10T13:53:46.409Z,0.77
2019-06-10T13:56:37.808Z,1.33
2019-06-10T13:58:47.758Z,1.20
2019-06-10T14:01:21.662Z,1.60
2019-06-10T14:03:48.758Z,1.57
2019-06-10T14:06:37.124Z,1.87
2019-06-10T14:08:52.189Z,1.83
2019-06-10T14:11:24.424Z,1.80
2019-06-10T14:13:52.735Z,1.40
2019-06-10T14:16:23.393Z,2.07
2019-06-10T14:18:54.194Z,2.27
2019-06-10T14:21:24.070Z,2.10
2019-06-10T14:23:53.898Z,1.80
2019-06-10T14:26:36.906Z,1.70
2019-06-10T14:28:55.001Z,1.50
2019-06-10T14:31:39.362Z,1.27
2019-06-10T14:33:56.077Z,1.63
2019-06-10T14:36:25.690Z,1.30
2019-06-10T14:38:55.390Z,1.43
2019-06-10T14:41:26.051Z,1.30
2019-06-10T14:43:55.835Z,1.20
2019-06-10T14:46:25.532Z,1.50
2019-06-10T14:48:55.303Z,1.30
2019-06-10T14:51:25.061Z,1.17
2019-06-10T14:53:54.802Z,1.17
2019-06-10T14:56:24.469Z,1.10
2019-06-10T14:58:54.151Z,1.00
2019-06-10T15:01:25.381Z,0.73
2019-06-10T15:03:55.170Z,1.10
2019-06-10T15:06:24.856Z,1.20
2019-06-10T15:08:54.506Z,1.50
2019-06-10T15:11:27.544Z,0.90
2019-06-10T15:13:55.485Z,1.10
2019-06-10T15:16:25.191Z,1.30
2019-06-10T15:19:02.636Z,0.90
2019-06-10T15:21:26.260Z,0.90
2019-06-10T15:23:55.940Z,1.07
2019-06-10T15:26:25.613Z,1.33
2019-06-10T15:28:55.357Z,1.07
2019-06-10T15:31:25.094Z,1.27
2019-06-10T15:33:54.797Z,1.63
2019-06-10T15:36:24.577Z,1.10
2019-06-10T15:38:54.304Z,1.13
2019-06-10T15:41:24.707Z,1.50
2019-06-10T15:43:54.705Z,1.10
2019-06-10T15:46:24.410Z,1.20
2019-06-10T15:48:54.380Z,1.37
2019-06-10T15:51:27.014Z,1.63
2019-06-10T15:53:56.843Z,1.53
2019-06-10T15:56:38.666Z,1.57
2019-06-10T15:58:57.863Z,1.93
2019-06-10T16:01:27.696Z,1.83
2019-06-10T16:03:57.966Z,1.90
2019-06-10T16:06:30.045Z,1.23
2019-06-10T16:08:59.730Z,1.50
2019-06-10T16:11:29.398Z,1.40
2019-06-10T16:13:59.182Z,1.20
2019-06-10T16:16:28.950Z,1.10
2019-06-10T16:18:58.685Z,1.20
2019-06-10T16:21:28.351Z,1.40
2019-06-10T16:23:58.058Z,1.40
2019-06-10T16:26:27.818Z,1.30
2019-06-10T16:28:57.469Z,1.63
2019-06-10T16:31:27.639Z,1.70
2019-06-10T16:33:57.570Z,1.40
2019-06-10T16:36:28.003Z,1.10
2019-06-10T16:38:57.908Z,1.37
2019-06-10T16:41:28.220Z,1.90
2019-06-10T16:43:58.042Z,1.63
2019-06-10T16:46:28.975Z,1.10
2019-06-10T16:48:58.895Z,1.40
2019-06-10T16:51:29.800Z,1.20
2019-06-10T16:54:02.242Z,1.53
2019-06-10T16:56:33.609Z,1.73
2019-06-10T16:59:02.984Z,1.70
2019-06-10T17:01:33.281Z,1.47
2019-06-10T17:04:03.035Z,1.53
2019-06-10T17:06:32.852Z,1.67
2019-06-10T17:09:02.901Z,1.43
2019-06-10T17:11:32.723Z,1.43
2019-06-10T17:14:03.116Z,2.03
2019-06-10T17:16:32.933Z,1.97
2019-06-10T17:19:02.644Z,1.67
2019-06-10T17:21:34.622Z,1.30
2019-06-10T17:24:03.981Z,1.30
2019-06-10T17:26:37.871Z,1.40
2019-06-10T17:29:04.955Z,1.30
2019-06-10T17:31:35.471Z,1.23
2019-06-10T17:34:05.239Z,1.60
2019-06-10T17:36:35.566Z,1.33
2019-06-10T17:39:08.257Z,1.60
2019-06-10T17:41:38.281Z,1.07
2019-06-10T17:44:10.010Z,1.30
2019-06-10T17:46:39.701Z,1.30
2019-06-10T17:49:09.370Z,1.20
2019-06-10T17:51:39.198Z,1.60
2019-06-10T17:54:09.069Z,1.10
2019-06-10T17:56:38.766Z,1.47
2019-06-10T17:59:08.434Z,1.60
2019-06-10T18:01:38.147Z,1.63
2019-06-10T18:04:07.770Z,1.70
2019-06-10T18:06:37.510Z,1.67
2019-06-10T18:09:07.826Z,1.50
2019-06-10T18:11:37.582Z,1.03
2019-06-10T18:14:07.397Z,1.53
2019-06-10T18:16:37.230Z,1.50
2019-06-10T18:19:06.990Z,1.60
2019-06-10T18:21:36.734Z,1.70
2019-06-10T18:24:08.494Z,1.30
2019-06-10T18:26:38.181Z,1.60
2019-06-10T18:29:09.185Z,1.57
2019-06-10T18:31:39.400Z,2.50
2019-06-10T18:34:12.959Z,1.90
2019-06-10T18:36:42.573Z,1.60
2019-06-10T18:39:12.359Z,1.40
2019-06-10T18:41:42.570Z,1.60
2019-06-10T18:44:22.059Z,1.30
2019-06-10T18:46:45.157Z,1.47
2019-06-10T18:49:14.973Z,1.53
2019-06-10T18:51:44.727Z,1.60
2019-06-10T18:54:14.514Z,2.10
2019-06-10T18:56:44.242Z,1.57
2019-06-10T18:59:20.688Z,1.60
2019-06-10T19:01:45.593Z,1.70
2019-06-10T19:04:15.286Z,2.07
2019-06-10T19:06:45.042Z,2.17
2019-06-10T19:09:14.786Z,1.67
2019-06-10T19:11:44.746Z,1.53
2019-06-10T19:14:14.523Z,1.87
2019-06-10T19:16:44.261Z,1.67
2019-06-10T19:19:13.989Z,1.50
2019-06-10T19:21:44.325Z,1.50
2019-06-10T19:24:14.209Z,2.00
2019-06-10T19:26:45.159Z,1.77
2019-06-10T19:29:29.961Z,1.83
2019-06-10T19:31:46.638Z,1.80
2019-06-10T19:34:16.452Z,1.70
2019-06-10T19:36:46.206Z,2.00
2019-06-10T19:39:16.047Z,1.53
2019-06-10T19:41:47.413Z,1.70
2019-06-10T19:44:17.113Z,1.50
2019-06-10T19:46:46.822Z,1.53
2019-06-10T19:49:16.564Z,1.63
2019-06-10T19:51:46.922Z,1.60
2019-06-10T19:54:16.830Z,1.90
2019-06-10T19:56:46.569Z,2.00
2019-06-10T19:59:16.258Z,2.10
2019-06-10T20:01:48.357Z,1.97
2019-06-10T20:04:18.297Z,2.00
2019-06-10T20:06:50.693Z,1.90
2019-06-10T20:09:19.473Z,1.90
2019-06-10T20:11:49.141Z,2.00
2019-06-10T20:14:18.944Z,1.80
2019-06-10T20:16:48.644Z,1.80
2019-06-10T20:19:18.425Z,1.97
2019-06-10T20:21:48.958Z,1.80
2019-06-10T20:24:18.778Z,2.00
2019-06-10T20:26:48.439Z,2.13
2019-06-10T20:29:18.136Z,2.17
2019-06-10T20:31:48.962Z,1.90
2019-06-10T20:34:19.636Z,1.80
2019-06-10T20:36:50.151Z,2.17
2019-06-10T20:39:24.389Z,1.63
2019-06-10T20:41:54.841Z,1.73
2019-06-10T20:44:22.486Z,1.60
2019-06-10T20:46:52.853Z,2.37
2019-06-10T20:49:22.821Z,2.10
2019-06-10T20:52:06.640Z,2.00
2019-06-10T20:54:23.983Z,1.80
2019-06-10T20:56:53.821Z,2.20
2019-06-10T20:59:26.049Z,1.80
2019-06-10T21:01:55.093Z,1.67
2019-06-10T21:04:25.178Z,1.83
2019-06-10T21:06:56.789Z,1.80
2019-06-10T21:09:27.267Z,1.60
2019-06-10T21:11:57.050Z,1.77
2019-06-10T21:14:26.798Z,1.70
2019-06-10T21:16:56.528Z,1.70
2019-06-10T21:19:26.265Z,2.23
2019-06-10T21:21:56.082Z,2.30
2019-06-10T21:24:25.780Z,1.37
2019-06-10T21:26:55.703Z,2.03
2019-06-10T21:29:25.445Z,1.80
2019-06-10T21:31:55.238Z,1.83
2019-06-10T21:34:24.989Z,1.87
2019-06-10T21:36:54.679Z,2.20
2019-06-10T21:39:24.784Z,1.70
2019-06-10T21:41:54.870Z,1.87
2019-06-10T21:44:24.593Z,1.87
2019-06-10T21:46:54.365Z,1.70
2019-06-10T21:49:24.105Z,1.60
2019-06-10T21:51:56.478Z,2.17
2019-06-10T21:54:25.283Z,2.00
2019-06-10T21:56:55.533Z,1.40
2019-06-10T21:59:25.562Z,1.30
2019-06-10T22:01:55.346Z,2.27
2019-06-10T22:04:25.004Z,1.60
2019-06-10T22:06:56.121Z,1.63
2019-06-10T22:09:25.899Z,1.53
2019-06-10T22:11:55.966Z,1.73
2019-06-10T22:14:25.718Z,1.80
2019-06-10T22:16:56.442Z,1.50
2019-06-10T22:19:26.414Z,2.03
2019-06-10T22:21:56.673Z,1.70
2019-06-10T22:24:26.802Z,2.03
2019-06-10T22:26:56.644Z,1.80
2019-06-10T22:29:26.399Z,1.90
2019-06-10T22:31:57.254Z,1.30
2019-06-10T22:34:27.087Z,1.77
2019-06-10T22:36:57.712Z,1.90
2019-06-10T22:39:27.468Z,1.90
2019-06-10T22:41:57.373Z,2.30
2019-06-10T22:44:27.053Z,2.00
2019-06-10T22:46:57.223Z,1.90
2019-06-10T22:49:27.241Z,1.70
2019-06-10T22:51:58.549Z,1.77
2019-06-10T22:54:28.386Z,1.70
2019-06-10T22:56:58.507Z,1.87
2019-06-10T22:59:28.615Z,1.97
2019-06-10T23:01:59.731Z,2.00
2019-06-10T23:04:29.795Z,1.93
2019-06-10T23:07:00.589Z,2.40
2019-06-10T23:09:30.910Z,2.10
2019-06-10T23:12:02.682Z,1.87
2019-06-10T23:14:33.189Z,1.60
2019-06-10T23:17:03.307Z,1.77
2019-06-10T23:19:33.309Z,1.90
2019-06-10T23:22:03.221Z,2.20
2019-06-10T23:24:33.022Z,2.27
2019-06-10T23:27:03.377Z,2.10
2019-06-10T23:29:33.273Z,2.30
2019-06-10T23:32:06.698Z,1.90
2019-06-10T23:34:34.362Z,1.70
2019-06-10T23:37:04.227Z,2.00
2019-06-10T23:39:33.910Z,1.90
2019-06-10T23:42:04.156Z,2.23
2019-06-10T23:44:34.309Z,2.20
2019-06-10T23:47:04.374Z,1.70
2019-06-10T23:49:34.133Z,2.10
2019-06-10T23:52:05.524Z,1.83
2019-06-10T23:54:36.990Z,1.93
2019-06-10T23:57:06.634Z,1.83
2019-06-10T23:59:36.373Z,2.33
